Time;durP1;ratioP1;P1;durP2;ratioP2;P2;SDS_P1;SDS_P2;PMS_P1;PMS_P2;Temp;Humidity;BMP_temperature;BMP_pressure;BME280_temperature;BME280_humidity;BME280_pressure;Samples;Min_cycle;Max_cycle;Signal;HPM_P1;HPM_P2
2022/12/19 00:01:04;;;;;;;41.92;20.67;;;-3.60;99.90;;;;;;5068895;28;20237;-84
2022/12/19 00:03:31;;;;;;;35.38;19.75;;;-3.60;99.90;;;;;;5066302;28;20265;-84
2022/12/19 00:06:01;;;;;;;37.35;19.88;;;-3.70;99.90;;;;;;5064296;28;20224;-84
2022/12/19 00:08:29;;;;;;;38.17;20.10;;;-3.60;99.90;;;;;;5069584;28;20206;-85
2022/12/19 00:10:57;;;;;;;38.25;18.45;;;-3.70;99.90;;;;;;5065266;28;20198;-85
2022/12/19 00:13:25;;;;;;;29.75;17.50;;;-3.70;99.90;;;;;;5067464;28;20237;-85
2022/12/19 00:15:52;;;;;;;32.45;17.65;;;-3.70;99.90;;;;;;5066678;28;20228;-85
2022/12/19 00:18:21;;;;;;;35.17;18.85;;;-3.80;99.90;;;;;;5076405;28;20362;-85
2022/12/19 00:20:55;;;;;;;35.97;19.25;;;-3.80;99.90;;;;;;5067044;28;20297;-85
2022/12/19 00:23:22;;;;;;;34.63;15.23;;;-3.80;99.90;;;;;;5069821;28;20213;-84
2022/12/19 00:25:49;;;;;;;27.95;16.02;;;-3.70;99.90;;;;;;5067348;28;20201;-85
2022/12/19 00:28:16;;;;;;;36.63;18.10;;;-3.80;99.90;;;;;;5067215;28;20283;-85
2022/12/19 00:30:43;;;;;;;30.75;17.60;;;-3.80;99.90;;;;;;5067251;28;20229;-85
2022/12/19 00:33:10;;;;;;;35.78;19.10;;;-3.80;99.90;;;;;;5065488;28;20201;-84
2022/12/19 00:35:38;;;;;;;33.13;17.65;;;-3.90;99.90;;;;;;5068010;28;20241;-85
2022/12/19 00:38:05;;;;;;;35.30;20.08;;;-3.80;99.90;;;;;;5069086;28;20202;-85
2022/12/19 00:40:32;;;;;;;34.25;19.77;;;-3.80;99.90;;;;;;5068975;28;20205;-85
2022/12/19 00:42:59;;;;;;;38.30;21.98;;;-3.80;99.90;;;;;;5066594;28;20286;-84
2022/12/19 00:45:26;;;;;;;30.10;16.60;;;-3.80;99.90;;;;;;5068759;28;20210;-84
2022/12/19 00:47:53;;;;;;;34.03;18.80;;;-3.80;99.90;;;;;;5064792;28;20610;-85
2022/12/19 00:50:20;;;;;;;29.88;16.45;;;-3.80;99.90;;;;;;5065055;28;20516;-85
2022/12/19 00:52:48;;;;;;;29.17;16.80;;;-3.80;99.90;;;;;;5066485;28;20291;-85
2022/12/19 00:55:15;;;;;;;29.33;16.75;;;-3.80;99.90;;;;;;5068713;28;20465;-85
2022/12/19 00:57:42;;;;;;;36.45;17.05;;;-3.80;99.90;;;;;;5071045;28;20241;-85
2022/12/19 01:00:10;;;;;;;31.98;17.45;;;-3.90;99.90;;;;;;5068780;28;20198;-85
2022/12/19 01:02:37;;;;;;;38.28;18.23;;;-3.90;99.90;;;;;;5067794;28;20290;-85
2022/12/19 01:05:05;;;;;;;32.15;17.15;;;-3.80;99.90;;;;;;5069026;28;20646;-85
2022/12/19 01:07:32;;;;;;;32.53;17.52;;;-3.90;99.90;;;;;;5065630;28;20731;-85
2022/12/19 01:10:00;;;;;;;31.52;16.05;;;-3.80;99.90;;;;;;5067327;28;20257;-85
2022/12/19 01:12:44;;;;;;;30.15;16.70;;;-3.90;99.90;;;;;;5069900;28;20240;-85
2022/12/19 01:15:11;;;;;;;25.65;14.07;;;-3.90;99.90;;;;;;5068727;28;20629;-84
2022/12/19 01:17:38;;;;;;;23.45;15.98;;;-4.00;99.90;;;;;;5066067;28;20229;-85
2022/12/19 01:20:06;;;;;;;25.15;14.07;;;-3.90;99.90;;;;;;5067650;28;20636;-85
2022/12/19 01:22:33;;;;;;;33.28;18.95;;;-3.90;99.90;;;;;;5068787;28;20614;-84
2022/12/19 01:25:02;;;;;;;36.10;17.55;;;-3.90;99.90;;;;;;5066430;28;20225;-85
2022/12/19 01:27:28;;;;;;;31.27;14.32;;;-4.00;99.90;;;;;;5065273;28;20259;-84
2022/12/19 01:29:55;;;;;;;27.10;15.95;;;-4.10;99.90;;;;;;5063703;28;20268;-85
2022/12/19 01:32:22;;;;;;;25.67;14.90;;;-4.00;99.90;;;;;;5067771;28;20238;-85
2022/12/19 01:34:49;;;;;;;31.27;17.10;;;-4.00;99.90;;;;;;5069129;28;20539;-85
2022/12/19 01:37:16;;;;;;;29.77;16.42;;;-4.00;99.90;;;;;;5067881;28;20508;-85
2022/12/19 01:39:43;;;;;;;24.90;12.88;;;-4.00;99.90;;;;;;5066193;28;20233;-85
2022/12/19 01:42:14;;;;;;;21.63;13.75;;;-4.00;99.90;;;;;;5064643;28;20283;-82
2022/12/19 01:45:04;;;;;;;23.38;13.10;;;-4.00;99.90;;;;;;5067123;28;20560;-82
2022/12/19 01:47:33;;;;;;;22.35;13.15;;;-4.10;99.90;;;;;;5065806;28;20711;-83
2022/12/19 01:50:01;;;;;;;22.50;12.63;;;-4.20;99.90;;;;;;5069246;28;20677;-82
2022/12/19 01:52:28;;;;;;;22.17;13.80;;;-4.40;99.90;;;;;;5071421;28;20632;-83
2022/12/19 01:54:55;;;;;;;24.20;13.30;;;-4.70;99.90;;;;;;5065620;28;20201;-83
2022/12/19 01:57:24;;;;;;;22.67;12.70;;;-4.80;99.90;;;;;;5065367;28;20206;-83
2022/12/19 01:59:54;;;;;;;26.40;12.10;;;-4.80;99.90;;;;;;5064194;28;20197;-83
2022/12/19 02:02:26;;;;;;;21.75;11.93;;;-5.00;99.90;;;;;;5066143;28;20557;-83
2022/12/19 02:04:53;;;;;;;25.20;12.48;;;-5.00;99.90;;;;;;5068897;28;21370;-83
2022/12/19 02:07:22;;;;;;;26.00;15.25;;;-4.90;99.90;;;;;;5066129;28;20743;-83
2022/12/19 02:09:53;;;;;;;22.77;12.52;;;-4.90;99.90;;;;;;5065420;28;20298;-83
2022/12/19 02:12:21;;;;;;;22.05;12.35;;;-4.90;99.90;;;;;;5066643;28;20308;-83
2022/12/19 02:14:50;;;;;;;31.50;13.30;;;-4.90;99.90;;;;;;5070814;28;20201;-83
2022/12/19 02:17:27;;;;;;;24.13;12.90;;;-5.00;99.90;;;;;;5069504;28;20446;-84
2022/12/19 02:20:28;;;;;;;25.42;11.38;;;-5.00;99.90;;;;;;5067964;28;20274;-83
2022/12/19 02:23:10;;;;;;;21.02;11.10;;;-5.00;99.90;;;;;;5069234;28;20289;-83
2022/12/19 02:25:53;;;;;;;21.02;12.38;;;-5.20;99.90;;;;;;5064646;28;20233;-83
2022/12/19 02:28:51;;;;;;;19.60;11.65;;;-5.30;99.90;;;;;;5067895;28;20216;-83
2022/12/19 02:31:23;;;;;;;18.40;11.18;;;-5.20;99.90;;;;;;5065926;28;20661;-83
2022/12/19 02:33:56;;;;;;;22.23;11.68;;;-5.10;99.90;;;;;;5065181;28;20261;-83
2022/12/19 02:36:29;;;;;;;23.33;12.90;;;-4.90;99.90;;;;;;5065180;28;20262;-83
2022/12/19 02:38:59;;;;;;;22.45;13.32;;;-4.80;99.90;;;;;;5071333;28;20232;-83
2022/12/19 02:41:41;;;;;;;25.23;13.00;;;-4.90;99.90;;;;;;5072775;28;20698;-83
2022/12/19 02:44:13;;;;;;;21.25;11.25;;;-5.00;99.90;;;;;;5062947;28;20209;-83
2022/12/19 02:46:43;;;;;;;24.40;12.27;;;-5.10;99.90;;;;;;5065026;28;20303;-83
2022/12/19 02:49:11;;;;;;;24.70;13.85;;;-5.20;99.90;;;;;;5075523;28;20681;-83
2022/12/19 02:51:38;;;;;;;22.65;11.80;;;-5.20;99.90;;;;;;5068615;28;20377;-85
2022/12/19 02:54:05;;;;;;;21.45;12.15;;;-5.20;99.90;;;;;;5063476;28;20291;-83
2022/12/19 02:56:44;;;;;;;25.95;14.20;;;-5.30;99.90;;;;;;5065618;28;20302;-83
2022/12/19 02:59:27;;;;;;;22.95;12.88;;;-5.30;99.90;;;;;;5063448;28;20288;-82
2022/12/19 03:02:03;;;;;;;23.65;11.13;;;-5.50;99.90;;;;;;5063619;28;20369;-83
2022/12/19 03:04:44;;;;;;;27.02;13.43;;;-5.50;99.90;;;;;;5072132;28;20767;-83
2022/12/19 03:07:18;;;;;;;19.05;11.45;;;-5.60;99.90;;;;;;5069483;28;20249;-82
2022/12/19 03:09:52;;;;;;;30.42;13.65;;;-5.50;99.90;;;;;;5067142;28;20309;-83
2022/12/19 03:12:26;;;;;;;19.90;12.23;;;-5.50;99.90;;;;;;5069279;28;20244;-83
2022/12/19 03:14:54;;;;;;;27.10;12.65;;;-5.50;99.90;;;;;;5065880;28;20610;-83
2022/12/19 03:17:23;;;;;;;26.08;13.48;;;-5.50;99.90;;;;;;5066592;28;20649;-83
2022/12/19 03:19:50;;;;;;;17.88;11.05;;;-5.40;99.90;;;;;;5064988;28;20194;-83
2022/12/19 03:22:17;;;;;;;26.73;10.93;;;-5.30;99.90;;;;;;5062714;28;20209;-83
2022/12/19 03:24:44;;;;;;;20.95;11.38;;;-5.10;99.90;;;;;;5069062;28;20983;-83
2022/12/19 03:27:16;;;;;;;20.02;12.80;;;-4.90;99.90;;;;;;5073161;28;20230;-84
2022/12/19 03:29:47;;;;;;;22.33;14.45;;;-4.70;99.90;;;;;;5076133;28;20245;-86
2022/12/19 03:32:16;;;;;;;25.27;14.30;;;-4.70;99.90;;;;;;5073220;28;20227;-82
2022/12/19 03:34:49;;;;;;;21.48;13.10;;;-4.60;99.90;;;;;;5075234;28;20606;-83
2022/12/19 03:37:19;;;;;;;25.15;12.70;;;-4.70;99.90;;;;;;5068916;28;20240;-83
2022/12/19 03:39:49;;;;;;;25.35;13.10;;;-4.70;99.90;;;;;;5077437;28;20206;-83
2022/12/19 03:45:06;;;;;;;19.90;11.77;;;-4.80;99.90;;;;;;5068028;28;20319;-83
2022/12/19 03:47:37;;;;;;;23.77;12.35;;;-4.70;99.90;;;;;;5068334;28;20210;-83
2022/12/19 03:50:07;;;;;;;30.05;14.73;;;-4.90;99.90;;;;;;5065480;28;20322;-83
2022/12/19 03:52:41;;;;;;;29.88;13.95;;;-4.90;99.90;;;;;;5070050;28;20209;-83
2022/12/19 03:55:13;;;;;;;18.92;12.25;;;-4.90;99.90;;;;;;5068502;28;20282;-83
2022/12/19 03:57:44;;;;;;;21.17;12.30;;;-4.90;99.90;;;;;;5069295;28;20228;-83
2022/12/19 04:00:14;;;;;;;25.80;11.23;;;-5.00;99.90;;;;;;5066073;28;20209;-83
2022/12/19 04:02:44;;;;;;;23.52;11.38;;;-4.90;99.90;;;;;;5068812;28;20243;-83
2022/12/19 04:05:18;;;;;;;17.58;11.30;;;-4.90;99.90;;;;;;5069463;28;20197;-83
2022/12/19 04:07:46;;;;;;;23.88;12.75;;;-4.80;99.90;;;;;;5075194;28;20560;-83
2022/12/19 04:10:16;;;;;;;22.05;10.82;;;-5.00;99.90;;;;;;5068179;28;20225;-83
2022/12/19 04:12:58;;;;;;;20.65;12.40;;;-5.10;99.90;;;;;;5071800;28;20630;-83
2022/12/19 04:15:34;;;;;;;22.05;11.10;;;-5.10;99.90;;;;;;5070034;28;20197;-84
2022/12/19 04:18:05;;;;;;;21.48;15.25;;;-5.00;99.90;;;;;;5066264;28;20294;-83
2022/12/19 04:20:37;;;;;;;29.30;12.25;;;-4.80;99.90;;;;;;5068478;28;20351;-83
2022/12/19 04:23:11;;;;;;;26.85;12.77;;;-4.80;99.90;;;;;;5075043;28;20273;-83
2022/12/19 04:25:42;;;;;;;20.13;13.13;;;-4.90;99.90;;;;;;5070054;28;20209;-83
2022/12/19 04:28:13;;;;;;;22.45;11.88;;;-5.10;99.90;;;;;;5064561;28;20899;-83
2022/12/19 04:30:42;;;;;;;23.73;13.20;;;-5.10;99.90;;;;;;5066849;28;20319;-84
2022/12/19 04:33:09;;;;;;;25.08;11.63;;;-4.90;99.90;;;;;;5067180;28;20258;-84
2022/12/19 04:35:37;;;;;;;23.52;12.27;;;-4.90;99.90;;;;;;5073110;28;20761;-83
2022/12/19 04:38:04;;;;;;;20.92;11.27;;;-4.80;99.90;;;;;;5066050;28;20592;-83
2022/12/19 04:40:31;;;;;;;19.20;10.40;;;-4.70;99.90;;;;;;5073081;28;20259;-84
2022/12/19 04:42:58;;;;;;;15.13;9.75;;;-4.70;99.90;;;;;;5065070;28;20271;-83
2022/12/19 04:45:25;;;;;;;23.60;12.68;;;-4.70;99.90;;;;;;5067080;28;20240;-83
2022/12/19 04:47:52;;;;;;;18.58;11.82;;;-4.60;99.90;;;;;;5069481;28;20308;-83
2022/12/19 04:50:19;;;;;;;24.85;12.40;;;-4.60;99.90;;;;;;5064776;28;20238;-83
2022/12/19 04:52:47;;;;;;;22.98;14.43;;;-4.60;99.90;;;;;;5067275;28;20202;-83
2022/12/19 04:55:14;;;;;;;24.23;13.85;;;-4.40;99.90;;;;;;5066700;28;20636;-83
2022/12/19 04:57:41;;;;;;;27.80;14.65;;;-4.30;99.90;;;;;;5067112;28;20233;-84
2022/12/19 05:00:10;;;;;;;22.90;13.75;;;-4.20;99.90;;;;;;5064644;28;20711;-84
2022/12/19 05:02:38;;;;;;;29.85;13.15;;;-4.30;99.90;;;;;;5067404;28;20206;-84
2022/12/19 05:05:06;;;;;;;21.27;13.02;;;-4.20;99.90;;;;;;5069735;28;20478;-84
2022/12/19 05:07:33;;;;;;;22.63;12.48;;;-4.20;99.90;;;;;;5070445;28;20307;-84
2022/12/19 05:10:01;;;;;;;27.67;15.48;;;-4.10;99.90;;;;;;5064980;28;20237;-84
2022/12/19 05:12:29;;;;;;;23.90;13.00;;;-4.20;99.90;;;;;;5068222;28;20206;-84
2022/12/19 05:14:56;;;;;;;26.45;13.55;;;-4.20;99.90;;;;;;5073311;28;20289;-84
2022/12/19 05:17:23;;;;;;;20.48;13.18;;;-4.20;99.90;;;;;;5065661;28;20209;-84
2022/12/19 05:19:50;;;;;;;28.63;15.27;;;-4.20;99.90;;;;;;5073542;28;20795;-84
2022/12/19 05:22:17;;;;;;;28.50;13.23;;;-4.50;99.90;;;;;;5068211;28;20232;-84
2022/12/19 05:24:43;;;;;;;22.55;13.90;;;-4.60;99.90;;;;;;5068828;28;20246;-84
2022/12/19 05:27:12;;;;;;;22.23;13.25;;;-4.70;99.90;;;;;;5064391;28;20233;-83
2022/12/19 05:29:39;;;;;;;120.30;58.55;;;-4.60;99.90;;;;;;5066309;28;20261;-84
2022/12/19 05:32:06;;;;;;;37.65;19.55;;;-4.40;99.90;;;;;;5065683;28;20325;-84
2022/12/19 05:34:32;;;;;;;27.05;15.85;;;-4.10;99.90;;;;;;5071607;28;20257;-84
2022/12/19 05:37:01;;;;;;;27.60;15.75;;;-4.00;99.90;;;;;;5064170;28;20291;-83
2022/12/19 05:39:28;;;;;;;24.98;15.10;;;-3.90;99.90;;;;;;5065660;28;20202;-84
2022/12/19 05:41:55;;;;;;;23.55;13.98;;;-3.70;99.90;;;;;;5070305;28;20260;-84
2022/12/19 05:44:24;;;;;;;24.70;14.57;;;-3.60;99.90;;;;;;5065288;28;20198;-84
2022/12/19 05:46:51;;;;;;;31.45;14.98;;;-3.50;99.90;;;;;;5065610;28;20576;-84
2022/12/19 05:49:18;;;;;;;26.27;17.60;;;-3.50;99.90;;;;;;5061643;28;20326;-84
2022/12/19 05:51:44;;;;;;;32.38;13.98;;;-3.40;99.90;;;;;;5066788;28;20261;-84
2022/12/19 05:54:11;;;;;;;25.95;15.00;;;-3.40;99.90;;;;;;5062423;28;20233;-84
2022/12/19 05:56:38;;;;;;;25.05;14.30;;;-3.40;99.90;;;;;;5064629;28;20299;-83
2022/12/19 05:59:05;;;;;;;30.25;16.77;;;-3.40;99.90;;;;;;5065152;28;20815;-84
2022/12/19 06:01:34;;;;;;;23.13;12.70;;;-3.30;99.90;;;;;;5068282;28;20237;-84
2022/12/19 06:04:02;;;;;;;25.40;14.90;;;-3.50;99.90;;;;;;5067709;28;20629;-83
2022/12/19 06:06:29;;;;;;;25.20;14.68;;;-3.80;99.90;;;;;;5069451;28;20269;-84
2022/12/19 06:08:58;;;;;;;21.60;14.15;;;-3.80;99.90;;;;;;5074689;28;20755;-84
2022/12/19 06:11:26;;;;;;;24.00;12.38;;;-4.00;99.90;;;;;;5066230;28;20224;-83
2022/12/19 06:13:53;;;;;;;28.27;15.38;;;-3.90;99.90;;;;;;5068533;28;20641;-83
2022/12/19 06:16:22;;;;;;;19.85;12.02;;;-4.00;99.90;;;;;;5067917;28;20796;-84
2022/12/19 06:18:51;;;;;;;32.40;16.42;;;-4.10;99.90;;;;;;5067736;28;20233;-83
2022/12/19 06:21:19;;;;;;;33.92;20.65;;;-4.20;99.90;;;;;;5066917;28;20240;-83
2022/12/19 06:23:47;;;;;;;34.28;18.85;;;-4.40;99.90;;;;;;5065720;28;20229;-85
2022/12/19 06:26:16;;;;;;;41.30;25.05;;;-4.40;99.90;;;;;;5070780;28;20204;-84
2022/12/19 06:28:43;;;;;;;30.02;15.52;;;-4.30;99.90;;;;;;5071327;28;20542;-83
2022/12/19 06:31:12;;;;;;;32.28;15.73;;;-4.30;99.90;;;;;;5077267;28;20221;-83
2022/12/19 06:33:39;;;;;;;28.67;14.80;;;-4.20;99.90;;;;;;5077635;28;20911;-84
2022/12/19 06:36:11;;;;;;;23.35;14.70;;;-4.20;99.90;;;;;;5077121;28;20290;-84
2022/12/19 06:38:38;;;;;;;29.52;15.95;;;-4.10;99.90;;;;;;5072023;28;20788;-84
2022/12/19 06:43:50;;;;;;;27.63;14.00;;;-4.10;99.90;;;;;;5066595;28;20731;-84
2022/12/19 06:46:17;;;;;;;38.08;19.13;;;-4.00;99.90;;;;;;5072043;28;20597;-83
2022/12/19 06:48:44;;;;;;;23.92;13.90;;;-4.00;99.90;;;;;;5065655;28;20251;-83
2022/12/19 06:51:12;;;;;;;19.02;11.35;;;-4.00;99.90;;;;;;5063354;28;20253;-86
2022/12/19 06:53:39;;;;;;;23.83;14.75;;;-4.10;99.90;;;;;;5067305;28;20267;-84
2022/12/19 06:56:06;;;;;;;29.27;14.52;;;-4.10;99.90;;;;;;5073583;28;20770;-83
2022/12/19 06:58:34;;;;;;;23.30;13.30;;;-4.10;99.90;;;;;;5066182;28;20282;-82
2022/12/19 07:01:01;;;;;;;25.65;13.55;;;-4.10;99.90;;;;;;5065157;28;20705;-82
2022/12/19 07:03:35;;;;;;;20.45;12.10;;;-4.10;99.90;;;;;;5075141;28;20296;-82
2022/12/19 07:06:02;;;;;;;39.85;22.08;;;-4.10;99.90;;;;;;5070262;28;20250;-83
2022/12/19 07:08:31;;;;;;;40.88;21.92;;;-4.00;99.90;;;;;;5065554;28;20238;-83
2022/12/19 07:10:58;;;;;;;102.95;45.50;;;-4.10;99.90;;;;;;5074038;28;20282;-82
2022/12/19 07:13:26;;;;;;;63.10;36.60;;;-4.00;99.90;;;;;;5074943;28;20789;-82
2022/12/19 07:15:54;;;;;;;23.27;14.60;;;-4.00;99.90;;;;;;5085194;28;20226;-83
2022/12/19 07:18:21;;;;;;;49.40;28.73;;;-4.00;99.90;;;;;;5071641;28;20263;-82
2022/12/19 07:20:48;;;;;;;76.95;43.05;;;-4.00;99.90;;;;;;5081092;28;20465;-82
2022/12/19 07:23:20;;;;;;;66.50;40.90;;;-4.00;99.90;;;;;;5071349;28;20206;-83
2022/12/19 07:25:48;;;;;;;46.38;26.08;;;-4.00;99.90;;;;;;5068299;28;20225;-83
2022/12/19 07:28:16;;;;;;;32.10;21.67;;;-4.00;99.90;;;;;;5069528;28;20834;-84
2022/12/19 07:30:43;;;;;;;44.38;31.30;;;-3.90;99.90;;;;;;5069310;28;20253;-84
2022/12/19 07:33:10;;;;;;;57.15;33.90;;;-4.00;99.90;;;;;;5070680;28;20640;-83
2022/12/19 07:35:37;;;;;;;32.90;19.80;;;-4.00;99.90;;;;;;5071444;28;20205;-84
2022/12/19 07:38:05;;;;;;;34.88;21.25;;;-4.00;99.90;;;;;;5067795;28;20693;-83
2022/12/19 07:40:33;;;;;;;25.15;14.27;;;-3.90;99.90;;;;;;5067725;28;20331;-83
2022/12/19 07:43:02;;;;;;;65.70;33.40;;;-3.70;99.90;;;;;;5069375;28;20508;-83
2022/12/19 07:45:30;;;;;;;42.88;20.65;;;-3.70;99.90;;;;;;5070534;28;20198;-83
2022/12/19 07:48:00;;;;;;;58.63;34.20;;;-3.60;99.90;;;;;;5067771;28;20202;-84
2022/12/19 07:50:27;;;;;;;67.45;37.90;;;-3.50;99.90;;;;;;5067407;28;21060;-82
2022/12/19 07:52:54;;;;;;;140.20;76.72;;;-3.20;99.90;;;;;;5070080;28;20615;-83
2022/12/19 07:55:21;;;;;;;45.75;31.00;;;-3.00;99.90;;;;;;5068120;28;20246;-83
2022/12/19 07:57:48;;;;;;;35.60;20.00;;;-2.90;99.90;;;;;;5070422;28;20198;-83
2022/12/19 08:00:17;;;;;;;36.47;23.23;;;-2.90;99.90;;;;;;5065583;28;20261;-83
2022/12/19 08:02:44;;;;;;;28.63;17.13;;;-2.80;99.90;;;;;;5067610;28;20693;-83
2022/12/19 08:05:12;;;;;;;36.10;19.42;;;-2.90;99.90;;;;;;5069804;28;20260;-83
2022/12/19 08:07:39;;;;;;;26.38;15.48;;;-2.70;99.90;;;;;;5070386;28;20662;-83
2022/12/19 08:10:07;;;;;;;25.75;15.82;;;-2.70;99.90;;;;;;5069347;28;20717;-83
2022/12/19 08:12:34;;;;;;;29.80;15.88;;;-2.80;99.90;;;;;;5069952;28;20254;-83
2022/12/19 08:15:01;;;;;;;32.38;18.50;;;-3.00;99.90;;;;;;5068814;28;20237;-83
2022/12/19 08:17:29;;;;;;;25.75;16.15;;;-3.00;99.90;;;;;;5065967;28;20313;-83
2022/12/19 08:19:56;;;;;;;28.98;18.08;;;-2.80;99.90;;;;;;5070319;28;20230;-83
2022/12/19 08:22:23;;;;;;;28.70;15.02;;;-2.60;99.90;;;;;;5068155;28;20233;-82
2022/12/19 08:24:50;;;;;;;32.72;15.18;;;-2.70;99.90;;;;;;5066750;28;20229;-82
2022/12/19 08:27:17;;;;;;;26.83;16.15;;;-2.60;99.90;;;;;;5066620;28;20234;-82
2022/12/19 08:29:44;;;;;;;28.55;13.10;;;-2.50;99.90;;;;;;5066278;28;20267;-82
2022/12/19 08:32:11;;;;;;;27.15;15.90;;;-2.30;99.90;;;;;;5073559;28;20686;-82
2022/12/19 08:34:40;;;;;;;30.15;17.02;;;-2.30;99.90;;;;;;5073183;28;20261;-82
2022/12/19 08:37:08;;;;;;;28.52;17.80;;;-2.00;99.90;;;;;;5071729;28;20198;-84
2022/12/19 08:39:35;;;;;;;31.42;16.50;;;-2.00;99.90;;;;;;5067112;28;20804;-84
2022/12/19 08:42:02;;;;;;;27.58;13.60;;;-1.90;99.90;;;;;;5067508;28;20265;-84
2022/12/19 08:44:29;;;;;;;22.20;14.18;;;-1.80;99.90;;;;;;5066387;28;20207;-89
2022/12/19 08:46:56;;;;;;;22.35;14.70;;;-1.60;99.90;;;;;;5075848;28;20203;-85
2022/12/19 08:49:23;;;;;;;21.83;14.05;;;-1.50;99.90;;;;;;5065660;28;20611;-84
2022/12/19 08:51:51;;;;;;;16.42;11.85;;;-1.30;99.90;;;;;;5076769;28;20250;-85
2022/12/19 08:54:18;;;;;;;25.45;16.50;;;-1.20;99.90;;;;;;5068338;28;20284;-85
2022/12/19 08:56:45;;;;;;;25.55;14.90;;;-1.20;99.90;;;;;;5068555;28;20759;-84
2022/12/19 08:59:12;;;;;;;17.67;11.57;;;-1.40;99.90;;;;;;5069841;28;20252;-85
2022/12/19 09:01:39;;;;;;;21.90;13.13;;;-1.30;99.90;;;;;;5071324;28;20225;-85
2022/12/19 09:04:06;;;;;;;18.27;11.30;;;-1.50;99.90;;;;;;5073453;28;20211;-84
2022/12/19 09:06:33;;;;;;;20.75;11.30;;;-1.30;99.90;;;;;;5070746;28;20200;-89
2022/12/19 09:09:02;;;;;;;19.98;12.15;;;-1.10;99.90;;;;;;5073211;28;20206;-84
2022/12/19 09:11:29;;;;;;;20.83;11.25;;;-1.60;99.90;;;;;;5078487;28;20700;-84
2022/12/19 09:13:57;;;;;;;35.60;20.50;;;-1.60;99.90;;;;;;5072381;28;20266;-84
2022/12/19 09:16:26;;;;;;;29.63;15.50;;;-1.40;99.90;;;;;;5069529;28;20524;-84
2022/12/19 09:18:55;;;;;;;34.30;19.23;;;-1.10;99.90;;;;;;5068582;28;20575;-85
2022/12/19 09:21:24;;;;;;;75.70;38.78;;;-1.00;99.90;;;;;;5066151;28;20536;-85
2022/12/19 09:23:53;;;;;;;83.25;44.30;;;-1.40;99.90;;;;;;5071431;28;20296;-84
2022/12/19 09:26:26;;;;;;;112.55;53.10;;;-1.20;99.90;;;;;;5068451;28;20202;-85
2022/12/19 09:28:54;;;;;;;23.27;13.90;;;-1.30;99.90;;;;;;5067063;28;20850;-85
2022/12/19 09:31:23;;;;;;;26.80;13.30;;;-1.00;99.90;;;;;;5066498;28;20240;-84
2022/12/19 09:33:50;;;;;;;19.38;11.98;;;-0.90;99.90;;;;;;5071026;28;20203;-85
2022/12/19 09:36:19;;;;;;;21.27;13.35;;;-1.00;99.90;;;;;;5063684;28;20258;-84
2022/12/19 09:38:47;;;;;;;22.53;12.20;;;-1.00;99.90;;;;;;5066659;28;20372;-85
2022/12/19 09:41:50;;;;;;;21.45;12.23;;;-0.80;99.90;;;;;;5065080;28;21077;-84
2022/12/19 09:44:32;;;;;;;16.63;10.95;;;-0.70;99.90;;;;;;5023314;28;20285;-84
2022/12/19 09:47:01;;;;;;;24.92;13.52;;;-0.70;99.90;;;;;;5069035;28;20266;-84
2022/12/19 09:49:37;;;;;;;18.50;11.57;;;-0.90;99.90;;;;;;5064055;28;20239;-85
2022/12/19 09:52:11;;;;;;;21.05;12.73;;;-1.00;99.90;;;;;;5065397;28;20332;-84
2022/12/19 09:54:41;;;;;;;23.23;13.27;;;-1.00;99.90;;;;;;5065202;28;20212;-84
2022/12/19 09:57:14;;;;;;;21.95;13.77;;;-1.00;99.90;;;;;;5067065;28;20723;-84
2022/12/19 09:59:46;;;;;;;22.85;12.77;;;-1.10;99.90;;;;;;5072816;28;20238;-84
2022/12/19 10:02:34;;;;;;;25.33;12.52;;;-1.00;99.90;;;;;;5070352;28;20226;-84
2022/12/19 10:05:06;;;;;;;24.70;13.00;;;-0.90;99.90;;;;;;5069912;28;21022;-83
2022/12/19 10:07:33;;;;;;;21.05;11.23;;;-0.80;99.90;;;;;;5064476;28;20260;-83
2022/12/19 10:10:01;;;;;;;18.70;11.82;;;-0.80;99.90;;;;;;5067294;28;20238;-84
2022/12/19 10:12:47;;;;;;;26.42;13.05;;;-0.70;99.90;;;;;;5061028;28;20227;-84
2022/12/19 10:15:23;;;;;;;19.45;12.35;;;-0.80;99.90;;;;;;5063800;28;20234;-84
2022/12/19 10:18:04;;;;;;;18.38;11.73;;;-0.90;99.90;;;;;;5071558;28;20230;-84
2022/12/19 10:20:37;;;;;;;19.25;13.38;;;-0.80;99.90;;;;;;5063274;28;20285;-83
2022/12/19 10:23:20;;;;;;;22.45;11.48;;;-0.80;99.90;;;;;;5062448;28;20659;-83
2022/12/19 10:25:52;;;;;;;18.85;11.88;;;-0.60;99.90;;;;;;5066557;28;20238;-86
2022/12/19 10:28:36;;;;;;;19.40;11.13;;;-0.30;99.90;;;;;;5065787;28;20267;-86
2022/12/19 10:31:14;;;;;;;28.80;14.27;;;-0.40;99.90;;;;;;5070505;28;20281;-86
2022/12/19 10:33:46;;;;;;;22.13;13.00;;;0.00;99.90;;;;;;5071344;28;20487;-85
2022/12/19 10:36:14;;;;;;;22.80;12.27;;;0.10;99.90;;;;;;5066155;28;20918;-86
2022/12/19 10:38:47;;;;;;;21.37;11.70;;;0.10;99.90;;;;;;5065834;28;20456;-85
2022/12/19 10:41:17;;;;;;;21.17;13.77;;;0.40;99.90;;;;;;5062559;28;20460;-86
2022/12/19 10:43:54;;;;;;;16.37;10.57;;;0.30;99.90;;;;;;5066634;28;20556;-85
2022/12/19 10:46:31;;;;;;;20.73;12.02;;;0.30;99.90;;;;;;5065304;28;20503;-86
2022/12/19 10:48:58;;;;;;;19.70;12.17;;;0.50;99.90;;;;;;5072362;28;20651;-86
2022/12/19 10:51:28;;;;;;;20.90;14.20;;;0.30;99.90;;;;;;5066330;28;20893;-86
2022/12/19 10:53:56;;;;;;;20.23;12.73;;;0.40;99.90;;;;;;5069010;28;20565;-86
2022/12/19 10:56:24;;;;;;;17.03;13.13;;;0.60;99.90;;;;;;5068246;28;20548;-86
2022/12/19 10:58:56;;;;;;;19.80;12.33;;;0.40;99.90;;;;;;5071445;28;20473;-84
2022/12/19 11:01:26;;;;;;;20.67;12.10;;;0.80;99.90;;;;;;5070962;28;21049;-84
2022/12/19 11:04:13;;;;;;;18.77;11.00;;;1.10;99.90;;;;;;5069076;28;20490;-84
2022/12/19 11:06:49;;;;;;;18.30;12.37;;;1.20;99.90;;;;;;5069257;28;20542;-85
2022/12/19 11:09:23;;;;;;;18.40;13.20;;;0.90;99.90;;;;;;5064532;28;20520;-85
2022/12/19 11:11:58;;;;;;;19.63;11.93;;;1.10;99.90;;;;;;5066018;28;20478;-84
2022/12/19 11:14:27;;;;;;;20.17;11.07;;;0.80;99.90;;;;;;5067787;28;20490;-85
2022/12/19 11:16:55;;;;;;;17.23;10.90;;;0.70;99.90;;;;;;5070251;28;20552;-84
2022/12/19 11:19:29;;;;;;;15.53;10.47;;;0.70;99.90;;;;;;5071248;28;20532;-85
2022/12/19 11:21:58;;;;;;;17.80;11.40;;;0.60;99.90;;;;;;5069818;28;20579;-85
2022/12/19 11:24:29;;;;;;;19.27;12.57;;;0.90;99.90;;;;;;5065153;28;20925;-85
2022/12/19 11:26:56;;;;;;;22.07;12.30;;;1.20;99.90;;;;;;5066615;28;20561;-85
2022/12/19 11:29:27;;;;;;;21.17;11.53;;;1.00;99.90;;;;;;5065186;28;20549;-85
2022/12/19 11:32:00;;;;;;;19.83;13.43;;;0.60;99.90;;;;;;5069499;28;20563;-85
2022/12/19 11:34:29;;;;;;;21.80;13.27;;;0.60;99.90;;;;;;5065272;28;20990;-85
2022/12/19 11:37:03;;;;;;;18.40;12.40;;;0.90;99.90;;;;;;5070605;28;21027;-86
2022/12/19 11:39:36;;;;;;;14.80;11.13;;;0.80;99.90;;;;;;5067048;28;20605;-85
2022/12/19 11:42:12;;;;;;;19.10;11.50;;;0.90;99.90;;;;;;5068325;28;20905;-83
2022/12/19 11:44:45;;;;;;;19.00;10.37;;;0.80;99.90;;;;;;5067341;28;20463;-83
2022/12/19 11:47:24;;;;;;;21.17;11.53;;;1.10;99.90;;;;;;5068754;28;20448;-83
2022/12/19 11:49:58;;;;;;;19.77;12.13;;;1.40;99.90;;;;;;5066191;28;20568;-84
2022/12/19 11:52:37;;;;;;;18.13;11.93;;;1.20;99.90;;;;;;5070482;28;20511;-83
2022/12/19 11:55:07;;;;;;;16.33;10.10;;;1.10;99.90;;;;;;5082789;28;20452;-84
2022/12/19 11:57:36;;;;;;;16.17;11.10;;;1.00;99.90;;;;;;5076751;28;21248;-83
2022/12/19 12:00:04;;;;;;;16.13;13.30;;;1.20;99.90;;;;;;5069730;28;20479;-83
2022/12/19 12:03:04;;;;;;;23.90;18.43;;;1.30;99.90;;;;;;5078526;28;20991;-83
2022/12/19 12:05:44;;;;;;;17.23;10.53;;;1.10;99.90;;;;;;5064098;28;20584;-83
2022/12/19 12:08:39;;;;;;;16.37;9.80;;;1.00;99.90;;;;;;5070764;28;20465;-83
2022/12/19 12:11:22;;;;;;;21.00;13.67;;;1.00;99.90;;;;;;5071495;28;20489;-83
2022/12/19 12:14:06;;;;;;;12.13;9.13;;;1.50;99.90;;;;;;5072848;28;20514;-84
2022/12/19 12:16:43;;;;;;;16.43;10.30;;;1.50;99.90;;;;;;5067569;28;20516;-83
2022/12/19 12:19:19;;;;;;;29.70;19.50;;;1.40;99.90;;;;;;5066208;28;20483;-83
2022/12/19 12:21:56;;;;;;;18.03;10.83;;;1.10;99.90;;;;;;5072575;28;20494;-83
2022/12/19 12:24:38;;;;;;;18.77;10.27;;;1.10;99.90;;;;;;5069614;28;20495;-84
2022/12/19 12:27:25;;;;;;;17.80;10.70;;;1.20;99.90;;;;;;5072427;28;20955;-84
2022/12/19 12:30:02;;;;;;;16.30;11.37;;;1.30;99.90;;;;;;5066375;28;20556;-84
2022/12/19 12:32:46;;;;;;;15.80;11.77;;;1.40;99.90;;;;;;5067798;28;20541;-84
2022/12/19 12:35:26;;;;;;;14.83;9.90;;;1.60;99.90;;;;;;5075371;28;20484;-84
2022/12/19 12:37:59;;;;;;;16.47;9.43;;;1.40;99.90;;;;;;5068930;28;21043;-84
2022/12/19 12:40:40;;;;;;;18.30;12.10;;;1.10;99.90;;;;;;5066861;28;21365;-84
2022/12/19 12:43:22;;;;;;;18.60;10.03;;;0.90;99.90;;;;;;5065935;28;20456;-85
2022/12/19 12:45:49;;;;;;;17.23;11.53;;;0.70;99.90;;;;;;5080433;28;20476;-84
2022/12/19 12:48:22;;;;;;;19.47;11.97;;;0.60;99.90;;;;;;5063887;28;20948;-82
2022/12/19 12:50:51;;;;;;;23.10;11.83;;;0.60;99.90;;;;;;5072997;28;20872;-82